Great Diamond Island, Maine
Current Conditions -  °F | °C
As of 12:51 AM on Friday 31 Oct 2014 (Local Time) from KPWM Reporting Station
Clear Clear  
Wind Chill: 36°   Ceiling: Unl
Heat Index: 36°   Visibility: 10mi
Dew Point: 32°   Wind: 0mph
Humidity: 86%   Direction: NA
Pressure: 30.02"   Gusts: NA
Location:  43.6801°N, 70.1969°W
Report Text: KPWM 310451Z AUTO 00000KT 10SM CLR 02/00 A3002 RMK AO2 SLP165 T00220000 401500022
Loading
Personal Weather Stations






























Interactive Weather Map
Tropical Storm Tracking
New forecast layout! Learn more

10-Day Weather Forecast

Advertisements
Track Severe Weather on mobile